sensor_id;sensor_type;location;lat;lon;timestamp;temperature;humidity
28947;DHT22;16052;50.930;5.326;2023-08-12T00:01:49;23.30;99.90
28947;DHT22;16052;50.930;5.326;2023-08-12T00:04:15;23.40;99.90
28947;DHT22;16052;50.930;5.326;2023-08-12T00:06:42;23.30;99.90
28947;DHT22;16052;50.930;5.326;2023-08-12T00:09:08;23.30;99.90
28947;DHT22;16052;50.930;5.326;2023-08-12T00:11:35;23.30;99.90
28947;DHT22;16052;50.930;5.326;2023-08-12T00:14:01;23.20;99.90
28947;DHT22;16052;50.930;5.326;2023-08-12T00:16:26;23.20;99.90
28947;DHT22;16052;50.930;5.326;2023-08-12T00:18:52;23.10;99.90
28947;DHT22;16052;50.930;5.326;2023-08-12T00:21:18;22.90;99.90
28947;DHT22;16052;50.930;5.326;2023-08-12T00:23:43;23.00;99.90
28947;DHT22;16052;50.930;5.326;2023-08-12T00:26:10;22.90;99.90
28947;DHT22;16052;50.930;5.326;2023-08-12T00:28:36;23.00;99.90
28947;DHT22;16052;50.930;5.326;2023-08-12T00:31:02;22.90;99.90
28947;DHT22;16052;50.930;5.326;2023-08-12T00:33:28;23.00;99.90
28947;DHT22;16052;50.930;5.326;2023-08-12T00:35:54;23.10;99.90
28947;DHT22;16052;50.930;5.326;2023-08-12T00:38:20;22.90;99.90
28947;DHT22;16052;50.930;5.326;2023-08-12T00:40:46;22.80;99.90
28947;DHT22;16052;50.930;5.326;2023-08-12T00:43:12;22.90;99.90
28947;DHT22;16052;50.930;5.326;2023-08-12T00:45:38;22.90;99.90
28947;DHT22;16052;50.930;5.326;2023-08-12T00:48:04;22.90;99.90
28947;DHT22;16052;50.930;5.326;2023-08-12T00:50:30;22.70;99.90
28947;DHT22;16052;50.930;5.326;2023-08-12T00:52:57;22.80;99.90
28947;DHT22;16052;50.930;5.326;2023-08-12T00:55:23;22.90;99.90
28947;DHT22;16052;50.930;5.326;2023-08-12T00:57:49;23.00;99.90
28947;DHT22;16052;50.930;5.326;2023-08-12T01:00:16;22.90;99.90
28947;DHT22;16052;50.930;5.326;2023-08-12T01:02:46;22.90;99.90
28947;DHT22;16052;50.930;5.326;2023-08-12T01:05:14;22.90;99.90
28947;DHT22;16052;50.930;5.326;2023-08-12T01:07:41;22.90;99.90
28947;DHT22;16052;50.930;5.326;2023-08-12T01:10:07;23.00;99.90
28947;DHT22;16052;50.930;5.326;2023-08-12T01:12:39;23.10;99.90
28947;DHT22;16052;50.930;5.326;2023-08-12T01:15:08;23.00;99.90
28947;DHT22;16052;50.930;5.326;2023-08-12T01:17:38;22.90;99.90
28947;DHT22;16052;50.930;5.326;2023-08-12T01:20:07;23.10;99.90
28947;DHT22;16052;50.930;5.326;2023-08-12T01:22:38;23.00;99.90
28947;DHT22;16052;50.930;5.326;2023-08-12T01:25:06;22.90;99.90
28947;DHT22;16052;50.930;5.326;2023-08-12T01:27:34;22.80;99.90
28947;DHT22;16052;50.930;5.326;2023-08-12T01:30:00;22.80;99.90
28947;DHT22;16052;50.930;5.326;2023-08-12T01:35:12;23.10;99.90
28947;DHT22;16052;50.930;5.326;2023-08-12T01:37:39;23.20;99.90
28947;DHT22;16052;50.930;5.326;2023-08-12T01:40:08;23.30;99.90
28947;DHT22;16052;50.930;5.326;2023-08-12T01:42:35;23.20;99.90
28947;DHT22;16052;50.930;5.326;2023-08-12T01:45:02;23.30;99.90
28947;DHT22;16052;50.930;5.326;2023-08-12T01:47:28;23.30;99.90
28947;DHT22;16052;50.930;5.326;2023-08-12T01:49:55;23.20;99.90
28947;DHT22;16052;50.930;5.326;2023-08-12T01:52:20;23.10;99.90
28947;DHT22;16052;50.930;5.326;2023-08-12T01:54:47;23.20;99.90
28947;DHT22;16052;50.930;5.326;2023-08-12T01:57:13;23.20;99.90
28947;DHT22;16052;50.930;5.326;2023-08-12T01:59:39;23.20;99.90
28947;DHT22;16052;50.930;5.326;2023-08-12T02:02:05;23.20;99.90
28947;DHT22;16052;50.930;5.326;2023-08-12T02:04:30;23.20;99.90
28947;DHT22;16052;50.930;5.326;2023-08-12T02:06:56;23.20;99.90
28947;DHT22;16052;50.930;5.326;2023-08-12T02:09:22;23.20;99.90
28947;DHT22;16052;50.930;5.326;2023-08-12T02:11:49;23.30;99.90
28947;DHT22;16052;50.930;5.326;2023-08-12T02:14:15;23.40;99.90
28947;DHT22;16052;50.930;5.326;2023-08-12T02:16:41;23.50;99.90
28947;DHT22;16052;50.930;5.326;2023-08-12T02:19:07;23.30;99.90
28947;DHT22;16052;50.930;5.326;2023-08-12T02:21:32;23.40;99.90
28947;DHT22;16052;50.930;5.326;2023-08-12T02:23:58;23.10;99.90
28947;DHT22;16052;50.930;5.326;2023-08-12T02:26:24;22.90;99.90
28947;DHT22;16052;50.930;5.326;2023-08-12T02:28:49;23.20;99.90
28947;DHT22;16052;50.930;5.326;2023-08-12T02:31:16;23.10;99.90
28947;DHT22;16052;50.930;5.326;2023-08-12T02:33:42;23.10;99.90
28947;DHT22;16052;50.930;5.326;2023-08-12T02:36:08;23.00;99.90
28947;DHT22;16052;50.930;5.326;2023-08-12T02:38:33;22.90;99.90
28947;DHT22;16052;50.930;5.326;2023-08-12T02:40:59;22.90;99.90
28947;DHT22;16052;50.930;5.326;2023-08-12T02:43:25;22.80;99.90
28947;DHT22;16052;50.930;5.326;2023-08-12T02:45:51;22.80;99.90
28947;DHT22;16052;50.930;5.326;2023-08-12T02:48:17;22.80;99.90
28947;DHT22;16052;50.930;5.326;2023-08-12T02:50:42;22.80;99.90
28947;DHT22;16052;50.930;5.326;2023-08-12T02:53:09;22.90;99.90
28947;DHT22;16052;50.930;5.326;2023-08-12T02:55:35;23.00;99.90
28947;DHT22;16052;50.930;5.326;2023-08-12T02:58:02;23.10;99.90
28947;DHT22;16052;50.930;5.326;2023-08-12T03:00:28;23.10;99.90
28947;DHT22;16052;50.930;5.326;2023-08-12T03:02:54;22.90;99.90
28947;DHT22;16052;50.930;5.326;2023-08-12T03:05:20;22.90;99.90
28947;DHT22;16052;50.930;5.326;2023-08-12T03:07:46;22.90;99.90
28947;DHT22;16052;50.930;5.326;2023-08-12T03:10:12;22.90;99.90
28947;DHT22;16052;50.930;5.326;2023-08-12T03:12:38;22.90;99.90
28947;DHT22;16052;50.930;5.326;2023-08-12T03:15:06;22.90;99.90
28947;DHT22;16052;50.930;5.326;2023-08-12T03:17:33;22.80;99.90
28947;DHT22;16052;50.930;5.326;2023-08-12T03:19:58;22.70;99.90
28947;DHT22;16052;50.930;5.326;2023-08-12T03:22:26;22.70;99.90
28947;DHT22;16052;50.930;5.326;2023-08-12T03:24:52;22.60;99.90
28947;DHT22;16052;50.930;5.326;2023-08-12T03:27:18;22.80;99.90
28947;DHT22;16052;50.930;5.326;2023-08-12T03:29:44;22.80;99.90
28947;DHT22;16052;50.930;5.326;2023-08-12T03:32:10;22.70;99.90
28947;DHT22;16052;50.930;5.326;2023-08-12T03:34:35;22.60;99.90
28947;DHT22;16052;50.930;5.326;2023-08-12T03:37:01;22.60;99.90
28947;DHT22;16052;50.930;5.326;2023-08-12T03:39:28;22.70;99.90
28947;DHT22;16052;50.930;5.326;2023-08-12T03:41:53;22.60;99.90
28947;DHT22;16052;50.930;5.326;2023-08-12T03:44:19;22.70;99.90
28947;DHT22;16052;50.930;5.326;2023-08-12T03:46:45;22.40;99.90
28947;DHT22;16052;50.930;5.326;2023-08-12T03:49:10;22.30;99.90
28947;DHT22;16052;50.930;5.326;2023-08-12T03:51:36;22.30;99.90
28947;DHT22;16052;50.930;5.326;2023-08-12T03:54:02;22.30;99.90
28947;DHT22;16052;50.930;5.326;2023-08-12T03:56:29;22.30;99.90
28947;DHT22;16052;50.930;5.326;2023-08-12T03:58:55;22.50;99.90
28947;DHT22;16052;50.930;5.326;2023-08-12T04:01:20;22.50;99.90
28947;DHT22;16052;50.930;5.326;2023-08-12T04:03:47;22.50;99.90
28947;DHT22;16052;50.930;5.326;2023-08-12T04:06:12;22.50;99.90
28947;DHT22;16052;50.930;5.326;2023-08-12T04:08:38;22.40;99.90
28947;DHT22;16052;50.930;5.326;2023-08-12T04:11:04;22.20;99.90
28947;DHT22;16052;50.930;5.326;2023-08-12T04:13:30;22.20;99.90
28947;DHT22;16052;50.930;5.326;2023-08-12T04:15:55;22.20;99.90
28947;DHT22;16052;50.930;5.326;2023-08-12T04:18:21;22.10;99.90
28947;DHT22;16052;50.930;5.326;2023-08-12T04:20:50;22.10;99.90
28947;DHT22;16052;50.930;5.326;2023-08-12T04:23:17;22.10;99.90
28947;DHT22;16052;50.930;5.326;2023-08-12T04:25:44;22.20;99.90
28947;DHT22;16052;50.930;5.326;2023-08-12T04:28:11;22.20;99.90
28947;DHT22;16052;50.930;5.326;2023-08-12T04:30:49;22.00;99.90
28947;DHT22;16052;50.930;5.326;2023-08-12T04:33:18;21.80;99.90
28947;DHT22;16052;50.930;5.326;2023-08-12T04:35:45;21.80;99.90
28947;DHT22;16052;50.930;5.326;2023-08-12T04:38:11;21.90;99.90
28947;DHT22;16052;50.930;5.326;2023-08-12T04:40:40;21.80;99.90
28947;DHT22;16052;50.930;5.326;2023-08-12T04:43:07;21.60;99.90
28947;DHT22;16052;50.930;5.326;2023-08-12T04:45:33;21.60;99.90
28947;DHT22;16052;50.930;5.326;2023-08-12T04:47:58;21.70;99.90
28947;DHT22;16052;50.930;5.326;2023-08-12T04:50:25;21.70;99.90
28947;DHT22;16052;50.930;5.326;2023-08-12T04:52:51;21.60;99.90
28947;DHT22;16052;50.930;5.326;2023-08-12T04:55:16;21.40;99.90
28947;DHT22;16052;50.930;5.326;2023-08-12T04:57:42;21.30;99.90
28947;DHT22;16052;50.930;5.326;2023-08-12T05:00:08;21.30;99.90
28947;DHT22;16052;50.930;5.326;2023-08-12T05:02:35;21.50;99.90
28947;DHT22;16052;50.930;5.326;2023-08-12T05:05:01;21.50;99.90
28947;DHT22;16052;50.930;5.326;2023-08-12T05:07:26;21.30;99.90
28947;DHT22;16052;50.930;5.326;2023-08-12T05:09:52;21.30;99.90
28947;DHT22;16052;50.930;5.326;2023-08-12T05:12:18;21.20;99.90
28947;DHT22;16052;50.930;5.326;2023-08-12T05:14:44;21.20;99.90
28947;DHT22;16052;50.930;5.326;2023-08-12T05:17:10;21.30;99.90
28947;DHT22;16052;50.930;5.326;2023-08-12T05:19:35;21.30;99.90
28947;DHT22;16052;50.930;5.326;2023-08-12T05:22:01;21.20;99.90
28947;DHT22;16052;50.930;5.326;2023-08-12T05:24:27;21.20;99.90
28947;DHT22;16052;50.930;5.326;2023-08-12T05:26:52;21.10;99.90
28947;DHT22;16052;50.930;5.326;2023-08-12T05:29:18;21.20;99.90
28947;DHT22;16052;50.930;5.326;2023-08-12T05:31:45;21.30;99.90
28947;DHT22;16052;50.930;5.326;2023-08-12T05:34:10;21.30;99.90
28947;DHT22;16052;50.930;5.326;2023-08-12T05:36:36;21.30;99.90
28947;DHT22;16052;50.930;5.326;2023-08-12T05:39:02;21.40;99.90
28947;DHT22;16052;50.930;5.326;2023-08-12T05:41:28;21.20;99.90
28947;DHT22;16052;50.930;5.326;2023-08-12T05:43:54;21.10;99.90
28947;DHT22;16052;50.930;5.326;2023-08-12T05:46:20;20.90;99.90
28947;DHT22;16052;50.930;5.326;2023-08-12T05:48:46;21.00;99.90
28947;DHT22;16052;50.930;5.326;2023-08-12T05:51:11;20.90;99.90
28947;DHT22;16052;50.930;5.326;2023-08-12T05:53:38;21.00;99.90
28947;DHT22;16052;50.930;5.326;2023-08-12T05:56:03;21.10;99.90
28947;DHT22;16052;50.930;5.326;2023-08-12T05:58:29;21.20;99.90
28947;DHT22;16052;50.930;5.326;2023-08-12T06:00:55;21.30;99.90
28947;DHT22;16052;50.930;5.326;2023-08-12T06:03:21;21.20;99.90
28947;DHT22;16052;50.930;5.326;2023-08-12T06:05:47;21.30;99.90
28947;DHT22;16052;50.930;5.326;2023-08-12T06:08:13;21.20;99.90
28947;DHT22;16052;50.930;5.326;2023-08-12T06:10:39;21.10;99.90
28947;DHT22;16052;50.930;5.326;2023-08-12T06:13:05;21.20;99.90
28947;DHT22;16052;50.930;5.326;2023-08-12T06:15:31;21.20;99.90
28947;DHT22;16052;50.930;5.326;2023-08-12T06:17:57;21.20;99.90
28947;DHT22;16052;50.930;5.326;2023-08-12T06:20:23;21.20;99.90
28947;DHT22;16052;50.930;5.326;2023-08-12T06:22:50;21.20;99.90
28947;DHT22;16052;50.930;5.326;2023-08-12T06:25:16;21.20;99.90
28947;DHT22;16052;50.930;5.326;2023-08-12T06:27:41;21.20;99.90
28947;DHT22;16052;50.930;5.326;2023-08-12T06:30:08;21.10;99.90
28947;DHT22;16052;50.930;5.326;2023-08-12T06:32:34;21.10;99.90
28947;DHT22;16052;50.930;5.326;2023-08-12T06:35:00;21.10;99.90
28947;DHT22;16052;50.930;5.326;2023-08-12T06:37:26;21.20;99.90
28947;DHT22;16052;50.930;5.326;2023-08-12T06:39:51;21.20;99.90
28947;DHT22;16052;50.930;5.326;2023-08-12T06:42:17;21.20;99.90
28947;DHT22;16052;50.930;5.326;2023-08-12T06:44:43;21.10;99.90
28947;DHT22;16052;50.930;5.326;2023-08-12T06:47:08;20.90;99.90
28947;DHT22;16052;50.930;5.326;2023-08-12T06:49:35;21.00;99.90
28947;DHT22;16052;50.930;5.326;2023-08-12T06:52:01;21.00;99.90
28947;DHT22;16052;50.930;5.326;2023-08-12T06:54:26;21.00;99.90
28947;DHT22;16052;50.930;5.326;2023-08-12T06:56:52;21.00;99.90
28947;DHT22;16052;50.930;5.326;2023-08-12T06:59:17;21.10;99.90
28947;DHT22;16052;50.930;5.326;2023-08-12T07:01:43;21.10;99.90
28947;DHT22;16052;50.930;5.326;2023-08-12T07:04:09;21.20;99.90
28947;DHT22;16052;50.930;5.326;2023-08-12T07:06:35;21.10;99.90
28947;DHT22;16052;50.930;5.326;2023-08-12T07:09:00;21.10;99.90
28947;DHT22;16052;50.930;5.326;2023-08-12T07:11:26;21.20;99.90
28947;DHT22;16052;50.930;5.326;2023-08-12T07:13:52;21.20;99.90
28947;DHT22;16052;50.930;5.326;2023-08-12T07:16:17;21.30;99.90
28947;DHT22;16052;50.930;5.326;2023-08-12T07:18:43;21.30;99.90
28947;DHT22;16052;50.930;5.326;2023-08-12T07:21:09;21.30;99.90
28947;DHT22;16052;50.930;5.326;2023-08-12T07:23:34;21.20;99.90
28947;DHT22;16052;50.930;5.326;2023-08-12T07:26:00;21.20;99.90
28947;DHT22;16052;50.930;5.326;2023-08-12T07:28:26;21.20;99.90
28947;DHT22;16052;50.930;5.326;2023-08-12T07:30:51;21.20;99.90
28947;DHT22;16052;50.930;5.326;2023-08-12T07:33:19;21.20;99.90
28947;DHT22;16052;50.930;5.326;2023-08-12T07:35:44;21.20;99.90
28947;DHT22;16052;50.930;5.326;2023-08-12T07:38:10;21.30;99.90
28947;DHT22;16052;50.930;5.326;2023-08-12T07:40:36;21.30;99.90
28947;DHT22;16052;50.930;5.326;2023-08-12T07:43:02;21.20;99.90
28947;DHT22;16052;50.930;5.326;2023-08-12T07:45:27;21.30;99.90
28947;DHT22;16052;50.930;5.326;2023-08-12T07:47:53;21.20;99.90
28947;DHT22;16052;50.930;5.326;2023-08-12T07:50:19;21.30;99.90
28947;DHT22;16052;50.930;5.326;2023-08-12T07:52:45;21.30;99.90
28947;DHT22;16052;50.930;5.326;2023-08-12T07:55:11;21.50;99.90
28947;DHT22;16052;50.930;5.326;2023-08-12T07:57:37;21.50;99.90
28947;DHT22;16052;50.930;5.326;2023-08-12T08:00:03;21.50;99.90
28947;DHT22;16052;50.930;5.326;2023-08-12T08:02:30;21.50;99.90
28947;DHT22;16052;50.930;5.326;2023-08-12T08:04:56;21.60;99.90
28947;DHT22;16052;50.930;5.326;2023-08-12T08:07:21;21.60;99.90
28947;DHT22;16052;50.930;5.326;2023-08-12T08:09:47;21.70;99.90
28947;DHT22;16052;50.930;5.326;2023-08-12T08:12:13;21.60;99.90
28947;DHT22;16052;50.930;5.326;2023-08-12T08:14:39;21.50;99.90
28947;DHT22;16052;50.930;5.326;2023-08-12T08:17:05;21.50;99.90
28947;DHT22;16052;50.930;5.326;2023-08-12T08:19:30;21.60;99.90
28947;DHT22;16052;50.930;5.326;2023-08-12T08:21:57;21.60;99.90
28947;DHT22;16052;50.930;5.326;2023-08-12T08:24:22;21.60;99.90
28947;DHT22;16052;50.930;5.326;2023-08-12T08:26:48;21.60;99.90
28947;DHT22;16052;50.930;5.326;2023-08-12T08:29:14;21.60;99.90
28947;DHT22;16052;50.930;5.326;2023-08-12T08:31:39;21.60;99.90
28947;DHT22;16052;50.930;5.326;2023-08-12T08:34:06;21.50;99.90
28947;DHT22;16052;50.930;5.326;2023-08-12T08:36:32;21.60;99.90
28947;DHT22;16052;50.930;5.326;2023-08-12T08:38:59;21.60;99.90
28947;DHT22;16052;50.930;5.326;2023-08-12T08:41:24;21.60;99.90
28947;DHT22;16052;50.930;5.326;2023-08-12T08:43:53;21.50;99.90
28947;DHT22;16052;50.930;5.326;2023-08-12T08:46:21;21.50;99.90
28947;DHT22;16052;50.930;5.326;2023-08-12T08:48:48;21.50;99.90
28947;DHT22;16052;50.930;5.326;2023-08-12T08:51:15;21.60;99.90
28947;DHT22;16052;50.930;5.326;2023-08-12T08:53:41;21.50;99.90
28947;DHT22;16052;50.930;5.326;2023-08-12T08:56:08;21.50;99.90
28947;DHT22;16052;50.930;5.326;2023-08-12T08:58:37;21.50;99.90
28947;DHT22;16052;50.930;5.326;2023-08-12T09:01:03;21.60;99.90
28947;DHT22;16052;50.930;5.326;2023-08-12T09:03:33;21.60;99.90
28947;DHT22;16052;50.930;5.326;2023-08-12T09:06:00;21.60;99.90
28947;DHT22;16052;50.930;5.326;2023-08-12T09:08:26;21.70;99.90
28947;DHT22;16052;50.930;5.326;2023-08-12T09:10:53;21.80;99.90
28947;DHT22;16052;50.930;5.326;2023-08-12T09:13:20;21.80;99.90
28947;DHT22;16052;50.930;5.326;2023-08-12T09:15:46;21.90;99.90
28947;DHT22;16052;50.930;5.326;2023-08-12T09:18:11;21.90;99.90
28947;DHT22;16052;50.930;5.326;2023-08-12T09:20:37;21.90;99.90
28947;DHT22;16052;50.930;5.326;2023-08-12T09:23:03;21.80;99.90
28947;DHT22;16052;50.930;5.326;2023-08-12T09:25:32;21.90;99.90
28947;DHT22;16052;50.930;5.326;2023-08-12T09:28:01;21.90;99.90
28947;DHT22;16052;50.930;5.326;2023-08-12T09:30:30;21.90;99.90
28947;DHT22;16052;50.930;5.326;2023-08-12T09:33:00;22.00;99.90
28947;DHT22;16052;50.930;5.326;2023-08-12T09:35:38;22.00;99.90
28947;DHT22;16052;50.930;5.326;2023-08-12T09:38:06;22.00;99.90
28947;DHT22;16052;50.930;5.326;2023-08-12T09:40:34;22.10;99.90
28947;DHT22;16052;50.930;5.326;2023-08-12T09:43:01;21.90;99.90
28947;DHT22;16052;50.930;5.326;2023-08-12T09:45:27;21.80;99.90
28947;DHT22;16052;50.930;5.326;2023-08-12T09:47:56;21.60;99.90
28947;DHT22;16052;50.930;5.326;2023-08-12T09:50:23;21.50;99.90
28947;DHT22;16052;50.930;5.326;2023-08-12T09:52:49;21.40;99.90
28947;DHT22;16052;50.930;5.326;2023-08-12T09:55:20;21.40;99.90
28947;DHT22;16052;50.930;5.326;2023-08-12T09:57:51;21.30;99.90
28947;DHT22;16052;50.930;5.326;2023-08-12T10:00:21;21.20;99.90
28947;DHT22;16052;50.930;5.326;2023-08-12T10:02:50;21.20;99.90
28947;DHT22;16052;50.930;5.326;2023-08-12T10:05:22;21.10;99.90
28947;DHT22;16052;50.930;5.326;2023-08-12T10:07:52;21.20;99.90
28947;DHT22;16052;50.930;5.326;2023-08-12T10:10:18;21.40;99.90
28947;DHT22;16052;50.930;5.326;2023-08-12T10:12:46;21.40;99.90
28947;DHT22;16052;50.930;5.326;2023-08-12T10:15:13;21.40;99.90
28947;DHT22;16052;50.930;5.326;2023-08-12T10:17:40;21.30;99.90
28947;DHT22;16052;50.930;5.326;2023-08-12T10:20:08;21.40;99.90
28947;DHT22;16052;50.930;5.326;2023-08-12T10:22:39;21.50;99.90
28947;DHT22;16052;50.930;5.326;2023-08-12T10:25:08;21.60;99.90
28947;DHT22;16052;50.930;5.326;2023-08-12T10:27:37;21.50;99.90
28947;DHT22;16052;50.930;5.326;2023-08-12T10:30:10;21.50;99.90
28947;DHT22;16052;50.930;5.326;2023-08-12T10:32:36;21.40;99.90
28947;DHT22;16052;50.930;5.326;2023-08-12T10:35:02;21.40;99.90
28947;DHT22;16052;50.930;5.326;2023-08-12T10:37:32;21.50;99.90
28947;DHT22;16052;50.930;5.326;2023-08-12T10:40:01;21.40;99.90
28947;DHT22;16052;50.930;5.326;2023-08-12T10:42:45;21.40;99.90
28947;DHT22;16052;50.930;5.326;2023-08-12T10:45:12;21.40;99.90
28947;DHT22;16052;50.930;5.326;2023-08-12T10:48:11;21.40;99.90
28947;DHT22;16052;50.930;5.326;2023-08-12T10:50:44;21.50;99.90
28947;DHT22;16052;50.930;5.326;2023-08-12T10:53:33;21.30;99.90
28947;DHT22;16052;50.930;5.326;2023-08-12T10:56:04;21.40;99.90
28947;DHT22;16052;50.930;5.326;2023-08-12T10:58:33;21.50;99.90
28947;DHT22;16052;50.930;5.326;2023-08-12T11:00:59;21.50;99.90
28947;DHT22;16052;50.930;5.326;2023-08-12T11:03:26;21.50;99.90
28947;DHT22;16052;50.930;5.326;2023-08-12T11:05:59;21.40;99.90
28947;DHT22;16052;50.930;5.326;2023-08-12T11:08:26;21.30;99.90
28947;DHT22;16052;50.930;5.326;2023-08-12T11:10:55;21.20;99.90
28947;DHT22;16052;50.930;5.326;2023-08-12T11:13:21;21.10;99.90
28947;DHT22;16052;50.930;5.326;2023-08-12T11:15:47;21.10;99.90
28947;DHT22;16052;50.930;5.326;2023-08-12T11:18:16;20.90;99.90
28947;DHT22;16052;50.930;5.326;2023-08-12T11:20:42;20.90;99.90
28947;DHT22;16052;50.930;5.326;2023-08-12T11:23:09;20.90;99.90
28947;DHT22;16052;50.930;5.326;2023-08-12T11:25:36;20.90;99.90
28947;DHT22;16052;50.930;5.326;2023-08-12T11:28:04;21.00;99.90
28947;DHT22;16052;50.930;5.326;2023-08-12T11:30:30;21.10;99.90
28947;DHT22;16052;50.930;5.326;2023-08-12T11:32:56;21.30;99.90
28947;DHT22;16052;50.930;5.326;2023-08-12T11:35:24;21.40;99.90
28947;DHT22;16052;50.930;5.326;2023-08-12T11:37:52;21.50;99.90
28947;DHT22;16052;50.930;5.326;2023-08-12T11:40:19;21.60;99.90
28947;DHT22;16052;50.930;5.326;2023-08-12T11:42:47;21.70;99.90
28947;DHT22;16052;50.930;5.326;2023-08-12T11:45:15;22.00;99.90
28947;DHT22;16052;50.930;5.326;2023-08-12T11:47:41;21.90;99.90
28947;DHT22;16052;50.930;5.326;2023-08-12T11:50:10;21.80;99.90
28947;DHT22;16052;50.930;5.326;2023-08-12T11:52:37;21.90;99.90
28947;DHT22;16052;50.930;5.326;2023-08-12T11:55:03;22.00;99.90
28947;DHT22;16052;50.930;5.326;2023-08-12T11:57:30;22.00;99.90
28947;DHT22;16052;50.930;5.326;2023-08-12T12:00:04;22.10;99.90
28947;DHT22;16052;50.930;5.326;2023-08-12T12:02:53;22.20;99.90
28947;DHT22;16052;50.930;5.326;2023-08-12T12:05:23;22.40;99.90
28947;DHT22;16052;50.930;5.326;2023-08-12T12:07:50;22.30;54.90
28947;DHT22;16052;50.930;5.326;2023-08-12T12:10:20;22.20;40.50
28947;DHT22;16052;50.930;5.326;2023-08-12T12:12:48;22.30;28.00
28947;DHT22;16052;50.930;5.326;2023-08-12T12:15:14;22.40;30.90
28947;DHT22;16052;50.930;5.326;2023-08-12T12:17:46;22.30;27.30
28947;DHT22;16052;50.930;5.326;2023-08-12T12:20:13;22.40;51.20
28947;DHT22;16052;50.930;5.326;2023-08-12T12:22:41;22.50;38.20
28947;DHT22;16052;50.930;5.326;2023-08-12T12:25:10;22.70;33.70
28947;DHT22;16052;50.930;5.326;2023-08-12T12:27:37;22.80;33.00
28947;DHT22;16052;50.930;5.326;2023-08-12T12:30:04;22.90;33.10
28947;DHT22;16052;50.930;5.326;2023-08-12T12:32:29;23.00;22.70
28947;DHT22;16052;50.930;5.326;2023-08-12T12:34:55;23.10;17.30
28947;DHT22;16052;50.930;5.326;2023-08-12T12:37:21;23.10;14.10
28947;DHT22;16052;50.930;5.326;2023-08-12T12:39:47;23.10;12.20
28947;DHT22;16052;50.930;5.326;2023-08-12T12:42:12;23.40;19.60
28947;DHT22;16052;50.930;5.326;2023-08-12T12:44:38;23.50;1.00
28947;DHT22;16052;50.930;5.326;2023-08-12T12:47:04;23.30;1.00
28947;DHT22;16052;50.930;5.326;2023-08-12T12:49:30;23.30;1.00
28947;DHT22;16052;50.930;5.326;2023-08-12T12:51:56;23.30;1.00
28947;DHT22;16052;50.930;5.326;2023-08-12T12:54:23;23.40;1.00
28947;DHT22;16052;50.930;5.326;2023-08-12T12:56:49;23.50;1.00
28947;DHT22;16052;50.930;5.326;2023-08-12T12:59:15;23.60;1.00
28947;DHT22;16052;50.930;5.326;2023-08-12T13:01:41;23.60;1.00
28947;DHT22;16052;50.930;5.326;2023-08-12T13:04:09;23.80;1.00
28947;DHT22;16052;50.930;5.326;2023-08-12T13:06:36;23.80;1.00
28947;DHT22;16052;50.930;5.326;2023-08-12T13:09:04;23.50;1.00
28947;DHT22;16052;50.930;5.326;2023-08-12T13:11:32;23.30;8.80
28947;DHT22;16052;50.930;5.326;2023-08-12T13:14:02;23.40;14.80
28947;DHT22;16052;50.930;5.326;2023-08-12T13:16:29;23.30;6.40
28947;DHT22;16052;50.930;5.326;2023-08-12T13:18:55;23.40;22.80
28947;DHT22;16052;50.930;5.326;2023-08-12T13:21:25;23.60;31.00
28947;DHT22;16052;50.930;5.326;2023-08-12T13:23:51;23.60;1.80
28947;DHT22;16052;50.930;5.326;2023-08-12T13:26:17;23.60;9.80
28947;DHT22;16052;50.930;5.326;2023-08-12T13:28:43;23.50;15.10
28947;DHT22;16052;50.930;5.326;2023-08-12T13:31:09;23.40;18.20
28947;DHT22;16052;50.930;5.326;2023-08-12T13:33:35;23.60;33.90
28947;DHT22;16052;50.930;5.326;2023-08-12T13:36:02;23.80;32.70
28947;DHT22;16052;50.930;5.326;2023-08-12T13:38:27;24.10;22.60
28947;DHT22;16052;50.930;5.326;2023-08-12T13:40:53;24.00;6.90
28947;DHT22;16052;50.930;5.326;2023-08-12T13:43:19;24.10;7.10
28947;DHT22;16052;50.930;5.326;2023-08-12T13:45:44;24.00;5.10
28947;DHT22;16052;50.930;5.326;2023-08-12T13:48:10;23.90;4.20
28947;DHT22;16052;50.930;5.326;2023-08-12T13:50:36;24.10;20.60
28947;DHT22;16052;50.930;5.326;2023-08-12T13:53:02;24.10;1.00
28947;DHT22;16052;50.930;5.326;2023-08-12T13:55:28;24.20;1.00
28947;DHT22;16052;50.930;5.326;2023-08-12T13:57:54;24.00;1.00
28947;DHT22;16052;50.930;5.326;2023-08-12T14:00:20;24.00;1.00
28947;DHT22;16052;50.930;5.326;2023-08-12T14:02:45;24.10;1.00
28947;DHT22;16052;50.930;5.326;2023-08-12T14:05:14;24.00;1.00
28947;DHT22;16052;50.930;5.326;2023-08-12T14:07:40;23.90;1.00
28947;DHT22;16052;50.930;5.326;2023-08-12T14:10:06;23.90;1.00
28947;DHT22;16052;50.930;5.326;2023-08-12T14:12:32;23.90;1.00
28947;DHT22;16052;50.930;5.326;2023-08-12T14:14:58;24.10;1.00
28947;DHT22;16052;50.930;5.326;2023-08-12T14:17:24;24.00;1.00
28947;DHT22;16052;50.930;5.326;2023-08-12T14:19:51;24.00;1.00
28947;DHT22;16052;50.930;5.326;2023-08-12T14:22:19;24.10;1.00
28947;DHT22;16052;50.930;5.326;2023-08-12T14:24:45;24.00;1.00
28947;DHT22;16052;50.930;5.326;2023-08-12T14:27:11;23.90;1.00
28947;DHT22;16052;50.930;5.326;2023-08-12T14:29:38;23.90;1.00
28947;DHT22;16052;50.930;5.326;2023-08-12T14:32:03;24.10;1.00
28947;DHT22;16052;50.930;5.326;2023-08-12T14:34:30;24.40;1.00
28947;DHT22;16052;50.930;5.326;2023-08-12T14:36:55;24.60;1.00
28947;DHT22;16052;50.930;5.326;2023-08-12T14:39:21;24.70;1.00
28947;DHT22;16052;50.930;5.326;2023-08-12T14:41:47;24.70;1.00
28947;DHT22;16052;50.930;5.326;2023-08-12T14:44:14;24.40;1.00
28947;DHT22;16052;50.930;5.326;2023-08-12T14:46:41;24.20;1.00
28947;DHT22;16052;50.930;5.326;2023-08-12T14:49:06;24.20;1.00
28947;DHT22;16052;50.930;5.326;2023-08-12T14:51:32;24.20;1.00
28947;DHT22;16052;50.930;5.326;2023-08-12T14:53:59;24.30;1.00
28947;DHT22;16052;50.930;5.326;2023-08-12T14:56:24;24.40;1.00
28947;DHT22;16052;50.930;5.326;2023-08-12T14:58:50;24.60;1.00
28947;DHT22;16052;50.930;5.326;2023-08-12T15:01:16;24.60;1.00
28947;DHT22;16052;50.930;5.326;2023-08-12T15:03:42;24.50;1.00
28947;DHT22;16052;50.930;5.326;2023-08-12T15:06:07;24.60;1.00
28947;DHT22;16052;50.930;5.326;2023-08-12T15:08:33;24.50;1.00
28947;DHT22;16052;50.930;5.326;2023-08-12T15:10:59;24.50;1.00
28947;DHT22;16052;50.930;5.326;2023-08-12T15:13:25;24.60;1.00
28947;DHT22;16052;50.930;5.326;2023-08-12T15:15:51;24.80;1.00
28947;DHT22;16052;50.930;5.326;2023-08-12T15:18:17;24.80;1.00
28947;DHT22;16052;50.930;5.326;2023-08-12T15:20:43;25.00;1.00
28947;DHT22;16052;50.930;5.326;2023-08-12T15:23:09;25.00;1.00
28947;DHT22;16052;50.930;5.326;2023-08-12T15:25:35;25.00;1.00
28947;DHT22;16052;50.930;5.326;2023-08-12T15:28:00;24.80;1.00
28947;DHT22;16052;50.930;5.326;2023-08-12T15:30:27;24.80;1.00
28947;DHT22;16052;50.930;5.326;2023-08-12T15:32:53;24.70;1.00